Time;durP1;ratioP1;P1;durP2;ratioP2;P2;SDS_P1;SDS_P2;PMS_P1;PMS_P2;Temp;Humidity;BMP_temperature;BMP_pressure;BME280_temperature;BME280_humidity;BME280_pressure;Samples;Min_cycle;Max_cycle;Signal;HPM_P1;HPM_P2
2022/07/25 00:00:19;;;;;;;3.25;2.28;;;24.50;73.90;;;;;;5055417;28;20083;-84
2022/07/25 00:02:45;;;;;;;4.68;3.00;;;24.40;74.40;;;;;;5055931;28;20036;-85
2022/07/25 00:05:11;;;;;;;6.20;2.83;;;24.40;75.30;;;;;;5055931;28;20041;-84
2022/07/25 00:07:36;;;;;;;4.22;2.55;;;24.40;75.70;;;;;;5055773;28;20061;-85
2022/07/25 00:10:03;;;;;;;4.18;2.53;;;24.30;75.60;;;;;;5037733;28;20075;-84
2022/07/25 00:12:28;;;;;;;4.70;2.42;;;24.30;75.40;;;;;;5055682;28;20103;-84
2022/07/25 00:14:54;;;;;;;7.18;3.40;;;24.30;75.40;;;;;;5055522;28;20116;-84
2022/07/25 00:17:20;;;;;;;4.43;3.25;;;24.20;76.00;;;;;;5054458;28;20079;-85
2022/07/25 00:19:45;;;;;;;6.10;2.70;;;24.20;76.40;;;;;;5054413;28;20542;-84
2022/07/25 00:22:11;;;;;;;4.80;2.45;;;24.10;76.30;;;;;;5055689;28;20400;-84
2022/07/25 00:24:37;;;;;;;6.53;2.67;;;24.10;76.30;;;;;;5037338;28;20095;-84
2022/07/25 00:27:02;;;;;;;4.78;2.83;;;24.10;76.30;;;;;;5055298;28;20063;-84
2022/07/25 00:29:28;;;;;;;3.83;2.90;;;24.00;76.10;;;;;;5055746;28;20089;-84
2022/07/25 00:31:54;;;;;;;5.20;2.88;;;24.00;76.20;;;;;;5055055;28;20064;-84
2022/07/25 00:34:19;;;;;;;3.55;2.33;;;24.00;76.30;;;;;;5054397;28;20032;-84
2022/07/25 00:36:45;;;;;;;6.15;3.10;;;23.90;76.30;;;;;;5055278;28;20029;-84
2022/07/25 00:39:11;;;;;;;5.22;2.97;;;23.90;76.60;;;;;;5055292;28;20033;-84
2022/07/25 00:41:37;;;;;;;5.88;3.13;;;23.90;76.80;;;;;;5037521;28;20465;-84
2022/07/25 00:44:03;;;;;;;4.53;2.53;;;23.90;77.00;;;;;;5055266;28;20044;-85
2022/07/25 00:46:28;;;;;;;4.82;3.13;;;23.80;77.30;;;;;;5055013;28;20075;-85
2022/07/25 00:48:54;;;;;;;5.32;2.75;;;23.80;77.90;;;;;;5054693;28;20442;-85
2022/07/25 00:51:20;;;;;;;6.22;3.20;;;23.70;78.20;;;;;;5063301;28;20534;-84
2022/07/25 00:53:46;;;;;;;5.65;3.03;;;23.70;78.40;;;;;;5070413;28;20099;-84
2022/07/25 00:56:11;;;;;;;5.50;2.95;;;23.70;78.60;;;;;;5074630;28;20056;-85
2022/07/25 00:58:37;;;;;;;6.10;3.25;;;23.70;79.20;;;;;;5074404;28;20096;-84
2022/07/25 01:01:03;;;;;;;5.22;3.22;;;23.60;79.80;;;;;;5056964;28;20396;-84
2022/07/25 01:03:29;;;;;;;6.82;3.20;;;23.60;80.50;;;;;;5057118;28;20107;-84
2022/07/25 01:05:55;;;;;;;4.40;2.92;;;23.60;81.10;;;;;;5074764;28;20111;-83
2022/07/25 01:08:21;;;;;;;5.47;3.08;;;23.50;81.50;;;;;;5074563;28;20039;-84
2022/07/25 01:10:47;;;;;;;5.05;3.08;;;23.50;82.00;;;;;;5074376;28;20025;-84
2022/07/25 01:13:14;;;;;;;7.03;3.13;;;23.50;82.40;;;;;;5074541;28;20024;-82
2022/07/25 01:15:41;;;;;;;5.60;3.45;;;23.40;82.70;;;;;;5074375;28;20051;-84
2022/07/25 01:18:06;;;;;;;8.63;3.70;;;23.40;83.10;;;;;;5073833;28;20111;-84
2022/07/25 01:20:32;;;;;;;8.27;3.33;;;23.40;83.10;;;;;;5074419;28;20056;-84
2022/07/25 01:22:59;;;;;;;4.80;3.50;;;23.40;82.80;;;;;;5074241;28;20103;-84
2022/07/25 01:25:25;;;;;;;6.35;3.58;;;23.30;82.70;;;;;;5073937;28;20033;-83
2022/07/25 01:27:52;;;;;;;5.95;3.50;;;23.20;82.70;;;;;;5074077;28;20028;-84
2022/07/25 01:30:19;;;;;;;6.85;3.15;;;23.20;82.70;;;;;;5073841;28;20048;-83
2022/07/25 01:32:46;;;;;;;9.05;3.97;;;23.20;82.80;;;;;;5074135;28;20027;-84
2022/07/25 01:35:13;;;;;;;7.15;3.53;;;23.10;83.50;;;;;;5073921;28;20029;-84
2022/07/25 01:37:39;;;;;;;6.50;4.07;;;23.10;83.00;;;;;;5074210;28;20032;-84
2022/07/25 01:40:06;;;;;;;6.35;3.83;;;23.10;83.20;;;;;;5056158;28;20028;-84
2022/07/25 01:42:31;;;;;;;5.78;3.70;;;23.00;83.40;;;;;;5055962;28;20031;-84
2022/07/25 01:44:57;;;;;;;6.18;3.80;;;23.00;83.60;;;;;;5073397;28;20025;-84
2022/07/25 01:47:23;;;;;;;8.15;5.78;;;23.00;83.70;;;;;;5073698;28;20469;-84
2022/07/25 01:49:49;;;;;;;6.50;4.03;;;22.90;83.90;;;;;;5074042;28;20044;-84
2022/07/25 01:52:14;;;;;;;5.43;3.83;;;22.90;84.10;;;;;;5073660;28;20024;-84
2022/07/25 01:54:40;;;;;;;7.20;4.18;;;22.90;84.30;;;;;;5073590;28;20035;-84
2022/07/25 01:57:06;;;;;;;5.57;4.18;;;22.80;84.40;;;;;;5073398;28;20113;-84
2022/07/25 01:59:35;;;;;;;7.28;4.10;;;22.80;84.40;;;;;;5055277;28;20036;-83
2022/07/25 02:02:01;;;;;;;5.63;4.25;;;22.80;84.50;;;;;;5073630;28;20459;-84
2022/07/25 02:04:26;;;;;;;6.93;3.90;;;22.80;84.60;;;;;;5055685;28;20099;-84
2022/07/25 02:06:52;;;;;;;7.25;3.50;;;22.80;84.70;;;;;;5074354;28;20040;-84
2022/07/25 02:09:18;;;;;;;6.25;4.28;;;22.70;84.70;;;;;;5073459;28;20029;-84
2022/07/25 02:11:43;;;;;;;7.15;4.35;;;22.70;84.80;;;;;;5047669;28;20477;-85
2022/07/25 02:14:09;;;;;;;6.18;4.05;;;22.70;84.80;;;;;;5042378;28;20125;-85
2022/07/25 02:16:35;;;;;;;8.57;4.85;;;22.70;85.50;;;;;;5068373;28;20029;-84
2022/07/25 02:19:00;;;;;;;9.38;4.88;;;22.70;84.90;;;;;;5053430;28;20032;-84
2022/07/25 02:21:26;;;;;;;6.80;4.35;;;22.70;84.80;;;;;;5068682;28;20036;-84
2022/07/25 02:23:51;;;;;;;7.32;4.68;;;22.70;84.80;;;;;;5053103;28;20025;-85
2022/07/25 02:26:17;;;;;;;7.38;4.95;;;22.60;84.60;;;;;;5053195;28;20037;-85
2022/07/25 02:28:43;;;;;;;7.15;5.07;;;22.70;84.60;;;;;;5053117;28;20033;-85
2022/07/25 02:31:08;;;;;;;6.20;5.00;;;22.60;84.60;;;;;;5068370;28;20036;-84
2022/07/25 02:33:34;;;;;;;9.93;5.05;;;22.70;84.70;;;;;;5052976;28;20029;-85
2022/07/25 02:36:00;;;;;;;11.77;4.88;;;22.60;84.50;;;;;;5053069;28;20025;-83
2022/07/25 02:38:26;;;;;;;9.70;5.43;;;22.60;84.50;;;;;;5052943;28;20029;-84
2022/07/25 02:40:52;;;;;;;7.50;5.25;;;22.60;84.40;;;;;;5068481;28;20460;-84
2022/07/25 02:43:18;;;;;;;7.85;5.05;;;22.60;84.30;;;;;;5034995;28;20486;-83
2022/07/25 02:45:44;;;;;;;7.55;5.85;;;22.60;84.30;;;;;;5052719;28;20432;-83
2022/07/25 02:48:10;;;;;;;9.73;6.20;;;22.60;84.20;;;;;;5052831;28;20477;-83
2022/07/25 02:50:36;;;;;;;9.07;6.38;;;22.50;84.10;;;;;;5068324;28;20086;-84
2022/07/25 02:53:02;;;;;;;8.45;5.97;;;22.50;84.00;;;;;;5052677;28;20026;-84
2022/07/25 02:55:28;;;;;;;8.18;5.50;;;22.50;83.90;;;;;;5053644;28;20032;-84
2022/07/25 02:57:53;;;;;;;8.00;5.60;;;22.50;83.70;;;;;;5056527;28;20057;-84
2022/07/25 03:00:19;;;;;;;8.63;6.10;;;22.50;83.60;;;;;;5056852;28;20037;-85
2022/07/25 03:02:45;;;;;;;9.48;5.93;;;22.50;83.50;;;;;;5056783;28;20036;-84
2022/07/25 03:05:13;;;;;;;10.10;6.40;;;22.50;83.40;;;;;;5056539;28;20033;-84
2022/07/25 03:07:40;;;;;;;8.45;5.78;;;22.50;83.40;;;;;;5056686;28;20514;-84
2022/07/25 03:10:08;;;;;;;8.65;5.50;;;22.40;83.30;;;;;;5038386;28;20074;-74
2022/07/25 03:12:34;;;;;;;11.10;6.38;;;22.50;83.40;;;;;;5056225;28;20109;-74
2022/07/25 03:15:00;;;;;;;9.07;5.60;;;22.40;83.30;;;;;;5056483;28;20052;-83
2022/07/25 03:17:27;;;;;;;9.00;6.03;;;22.40;83.30;;;;;;5056522;28;20033;-83
2022/07/25 03:19:56;;;;;;;9.63;6.40;;;22.40;84.00;;;;;;5056009;28;20025;-83
2022/07/25 03:22:22;;;;;;;8.30;5.70;;;22.40;83.40;;;;;;5056218;28;20100;-83
2022/07/25 03:24:49;;;;;;;9.15;6.47;;;22.40;83.50;;;;;;5071555;28;20091;-83
2022/07/25 03:27:14;;;;;;;7.53;5.82;;;22.40;83.50;;;;;;5071833;28;20031;-85
2022/07/25 03:29:40;;;;;;;14.15;6.55;;;22.30;83.50;;;;;;5056509;28;20029;-84
2022/07/25 03:32:07;;;;;;;7.85;5.80;;;22.30;83.60;;;;;;5056474;28;20055;-84
2022/07/25 03:34:33;;;;;;;11.85;7.55;;;22.30;83.60;;;;;;5071743;28;20040;-84
2022/07/25 03:36:59;;;;;;;10.77;7.03;;;22.30;83.60;;;;;;5056119;28;20381;-84
2022/07/25 03:39:25;;;;;;;10.82;6.22;;;22.20;83.50;;;;;;5055953;28;20029;-84
2022/07/25 03:41:51;;;;;;;8.57;6.38;;;22.20;83.50;;;;;;5055778;28;20032;-84
2022/07/25 03:44:18;;;;;;;10.70;6.65;;;22.20;83.60;;;;;;5071912;28;20591;-84
2022/07/25 03:46:43;;;;;;;11.40;6.45;;;22.30;83.70;;;;;;5055970;28;20503;-73
2022/07/25 03:49:09;;;;;;;9.85;6.90;;;22.20;83.90;;;;;;5055445;28;20021;-74
2022/07/25 03:51:35;;;;;;;8.68;6.85;;;22.20;83.90;;;;;;5070830;28;20032;-73
2022/07/25 03:54:00;;;;;;;11.10;6.47;;;22.20;84.00;;;;;;5071938;28;20025;-73
2022/07/25 03:56:27;;;;;;;8.70;6.32;;;22.20;84.20;;;;;;5075873;28;20044;-74
2022/07/25 03:58:53;;;;;;;10.63;6.93;;;22.10;84.70;;;;;;5057215;28;20044;-74
2022/07/25 04:01:19;;;;;;;9.05;6.82;;;22.10;85.10;;;;;;5075633;28;20085;-73
2022/07/25 04:03:45;;;;;;;8.57;6.80;;;22.10;85.40;;;;;;5075588;28;20029;-74
2022/07/25 04:06:10;;;;;;;10.35;7.43;;;22.10;85.60;;;;;;5075575;28;20086;-73
2022/07/25 04:08:36;;;;;;;9.05;6.53;;;22.10;85.80;;;;;;5074712;28;20096;-73
2022/07/25 04:11:01;;;;;;;9.60;7.40;;;22.10;86.00;;;;;;5075866;28;20028;-73
2022/07/25 04:13:27;;;;;;;9.77;7.50;;;22.00;86.10;;;;;;5065286;28;20029;-74
2022/07/25 04:15:53;;;;;;;10.80;7.63;;;22.00;86.30;;;;;;5070768;28;20035;-74
2022/07/25 04:18:18;;;;;;;11.20;6.50;;;22.10;86.50;;;;;;5067198;28;20075;-74
2022/07/25 04:20:44;;;;;;;9.43;7.20;;;22.00;86.60;;;;;;5069921;28;20032;-74
2022/07/25 04:23:09;;;;;;;10.15;7.60;;;22.10;86.90;;;;;;5066468;28;20485;-73
2022/07/25 04:25:35;;;;;;;10.00;6.82;;;22.00;87.00;;;;;;5053466;28;20044;-74
2022/07/25 04:28:02;;;;;;;9.43;7.63;;;22.00;87.00;;;;;;5054046;28;20033;-75
2022/07/25 04:30:27;;;;;;;12.85;6.88;;;22.00;87.60;;;;;;5055262;28;20029;-74
2022/07/25 04:32:53;;;;;;;12.95;7.57;;;22.00;86.90;;;;;;5055291;28;20083;-73
2022/07/25 04:35:19;;;;;;;11.80;7.22;;;22.00;86.80;;;;;;5070854;28;20055;-73
2022/07/25 04:37:45;;;;;;;10.13;7.32;;;22.10;86.90;;;;;;5074480;28;20068;-73
2022/07/25 04:40:11;;;;;;;11.77;7.35;;;22.10;86.90;;;;;;5074090;28;20032;-73
2022/07/25 04:42:36;;;;;;;12.18;6.45;;;22.10;86.80;;;;;;5074948;28;20032;-74
2022/07/25 04:45:03;;;;;;;10.32;6.68;;;22.10;87.10;;;;;;5075254;28;20385;-73
2022/07/25 04:47:29;;;;;;;8.85;6.43;;;22.10;87.50;;;;;;5074862;28;20399;-74
2022/07/25 04:49:55;;;;;;;9.35;6.85;;;22.20;87.90;;;;;;5074366;28;20036;-74
2022/07/25 04:52:20;;;;;;;13.75;7.10;;;22.20;87.80;;;;;;5074733;28;20028;-74
2022/07/25 04:54:46;;;;;;;10.23;6.68;;;22.30;87.60;;;;;;5074926;28;20511;-74
2022/07/25 04:57:11;;;;;;;9.07;6.90;;;22.30;87.30;;;;;;5074644;28;20681;-74
2022/07/25 04:59:37;;;;;;;10.20;6.80;;;22.30;86.50;;;;;;5074399;28;20406;-74
2022/07/25 05:02:03;;;;;;;9.00;6.43;;;22.30;85.90;;;;;;5074498;28;20059;-74
2022/07/25 05:04:29;;;;;;;12.45;6.55;;;22.40;85.60;;;;;;5074410;28;20032;-74
2022/07/25 05:06:54;;;;;;;10.73;6.93;;;22.40;85.30;;;;;;5074604;28;20036;-72
2022/07/25 05:09:20;;;;;;;10.75;6.78;;;22.50;85.00;;;;;;5056308;28;20043;-73
2022/07/25 05:11:46;;;;;;;10.50;7.43;;;22.50;84.50;;;;;;5073846;28;20029;-73
2022/07/25 05:14:12;;;;;;;9.95;7.18;;;22.50;84.10;;;;;;5073408;28;20020;-73
2022/07/25 05:16:37;;;;;;;9.18;6.82;;;22.60;83.70;;;;;;5072703;28;20025;-73
2022/07/25 05:19:03;;;;;;;11.10;7.07;;;22.70;83.30;;;;;;5074271;28;20104;-73
2022/07/25 05:21:29;;;;;;;10.45;7.05;;;22.70;82.90;;;;;;5073933;28;20086;-73
2022/07/25 05:23:55;;;;;;;11.80;7.45;;;22.70;82.60;;;;;;5073731;28;20047;-73
2022/07/25 05:26:20;;;;;;;9.50;7.53;;;22.80;82.30;;;;;;5073503;28;20029;-73
2022/07/25 05:28:46;;;;;;;11.60;8.23;;;22.80;81.90;;;;;;5073555;28;20112;-73
2022/07/25 05:31:12;;;;;;;11.60;7.53;;;22.80;81.40;;;;;;5073037;28;20034;-74
2022/07/25 05:33:37;;;;;;;10.70;7.53;;;22.80;81.20;;;;;;5073489;28;20453;-76
2022/07/25 05:36:04;;;;;;;10.57;7.45;;;22.80;80.80;;;;;;5073615;28;20051;-75
2022/07/25 05:38:29;;;;;;;11.05;8.10;;;22.80;80.60;;;;;;5073266;28;20031;-76
2022/07/25 05:40:55;;;;;;;11.95;8.27;;;22.90;80.30;;;;;;5073415;28;20020;-75
2022/07/25 05:43:21;;;;;;;11.07;8.43;;;22.90;80.20;;;;;;5073522;28;20035;-74
2022/07/25 05:45:46;;;;;;;10.73;7.90;;;22.90;80.00;;;;;;5055467;28;20481;-76
2022/07/25 05:48:13;;;;;;;10.98;7.93;;;22.90;79.80;;;;;;5051970;28;20025;-76
2022/07/25 05:50:39;;;;;;;10.98;7.60;;;23.00;79.70;;;;;;5070210;28;20077;-76
2022/07/25 05:53:05;;;;;;;12.60;8.20;;;23.00;79.50;;;;;;5073568;28;20024;-76
2022/07/25 05:55:31;;;;;;;10.23;7.38;;;23.10;79.30;;;;;;5073381;28;20029;-75
2022/07/25 05:57:57;;;;;;;11.15;8.23;;;23.10;79.10;;;;;;5055233;28;20040;-76
2022/07/25 06:00:23;;;;;;;10.50;8.13;;;23.20;78.80;;;;;;5073156;28;20039;-76
2022/07/25 06:02:48;;;;;;;10.65;7.90;;;23.20;78.60;;;;;;5073176;28;20051;-76
2022/07/25 06:05:14;;;;;;;16.30;8.70;;;23.30;78.40;;;;;;5073356;28;20056;-76
2022/07/25 06:07:40;;;;;;;13.18;8.20;;;23.30;78.10;;;;;;5073223;28;20028;-75
2022/07/25 06:10:07;;;;;;;10.18;8.07;;;23.40;78.00;;;;;;5055054;28;20033;-76
2022/07/25 06:12:32;;;;;;;13.45;8.20;;;23.40;77.70;;;;;;5072886;28;20016;-76
2022/07/25 06:14:59;;;;;;;12.80;8.13;;;23.40;77.50;;;;;;5072995;28;20027;-76
2022/07/25 06:17:25;;;;;;;10.38;7.55;;;23.50;77.20;;;;;;5055110;28;20020;-75
2022/07/25 06:19:50;;;;;;;9.40;7.20;;;23.50;77.20;;;;;;5072874;28;20009;-75
2022/07/25 06:22:18;;;;;;;11.60;8.15;;;23.50;77.10;;;;;;5073210;28;20082;-75
2022/07/25 06:24:44;;;;;;;11.75;8.13;;;23.50;76.90;;;;;;5073247;28;20081;-76
2022/07/25 06:27:10;;;;;;;9.73;7.00;;;23.60;76.70;;;;;;5073615;28;20032;-76
2022/07/25 06:29:37;;;;;;;11.80;8.25;;;23.70;76.60;;;;;;5073175;28;20021;-75
2022/07/25 06:32:03;;;;;;;11.77;8.00;;;23.70;76.50;;;;;;5076598;28;20385;-74
2022/07/25 06:34:29;;;;;;;10.35;7.53;;;23.70;75.80;;;;;;5077229;28;20017;-76
2022/07/25 06:36:56;;;;;;;9.20;7.13;;;23.70;75.80;;;;;;5077502;28;20111;-76
2022/07/25 06:39:22;;;;;;;10.02;8.10;;;23.70;75.70;;;;;;5077369;28;20020;-76
2022/07/25 06:41:47;;;;;;;11.60;6.78;;;23.70;75.50;;;;;;5077432;28;20081;-76
2022/07/25 06:44:13;;;;;;;10.65;7.78;;;23.70;75.60;;;;;;5042822;28;20025;-76
2022/07/25 06:46:39;;;;;;;11.60;7.43;;;23.70;75.50;;;;;;5077327;28;20025;-76
2022/07/25 06:49:05;;;;;;;12.88;7.43;;;23.70;75.40;;;;;;5076901;28;20033;-75
2022/07/25 06:51:30;;;;;;;12.15;7.32;;;23.70;75.50;;;;;;5077519;28;20441;-76
2022/07/25 06:53:56;;;;;;;8.73;6.70;;;23.70;75.50;;;;;;5076719;28;20029;-76
2022/07/25 06:56:22;;;;;;;12.48;7.78;;;23.70;75.40;;;;;;5077083;28;20013;-76
2022/07/25 06:58:47;;;;;;;10.25;7.30;;;23.70;75.10;;;;;;5076721;28;20068;-76
2022/07/25 07:01:13;;;;;;;8.25;6.30;;;23.60;74.90;;;;;;5076427;28;20032;-76
2022/07/25 07:03:39;;;;;;;9.88;6.65;;;23.60;74.90;;;;;;5076705;28;20358;-76
2022/07/25 07:06:06;;;;;;;10.05;7.22;;;23.60;74.60;;;;;;5076704;28;20037;-77
2022/07/25 07:08:32;;;;;;;10.68;6.60;;;23.60;74.70;;;;;;5074684;28;20033;-76
2022/07/25 07:10:58;;;;;;;10.43;7.75;;;23.50;74.70;;;;;;5076089;28;20388;-76
2022/07/25 07:13:24;;;;;;;9.60;6.25;;;23.50;74.80;;;;;;5076443;28;20020;-76
2022/07/25 07:15:50;;;;;;;10.85;7.30;;;23.60;74.90;;;;;;5076838;28;20032;-76
2022/07/25 07:18:17;;;;;;;13.75;7.20;;;23.60;74.90;;;;;;5076597;28;20025;-76
2022/07/25 07:20:43;;;;;;;10.80;6.57;;;23.70;74.90;;;;;;5076078;28;20032;-76
2022/07/25 07:23:10;;;;;;;8.50;5.50;;;23.80;75.00;;;;;;5076429;28;20090;-76
2022/07/25 07:25:35;;;;;;;9.75;6.20;;;23.80;74.90;;;;;;5076370;28;20025;-76
2022/07/25 07:28:01;;;;;;;8.35;5.75;;;23.90;74.70;;;;;;5076222;28;20101;-76
2022/07/25 07:30:27;;;;;;;11.18;4.68;;;24.00;74.40;;;;;;5076216;28;20033;-76
2022/07/25 07:32:53;;;;;;;10.48;4.50;;;24.10;74.10;;;;;;5076272;28;20028;-76
2022/07/25 07:35:18;;;;;;;8.82;4.20;;;24.10;73.60;;;;;;5075095;28;20016;-76
2022/07/25 07:37:45;;;;;;;8.32;4.28;;;24.20;73.40;;;;;;5076339;28;20046;-76
2022/07/25 07:40:14;;;;;;;6.93;3.92;;;24.20;73.00;;;;;;5076108;28;20025;-76
2022/07/25 07:42:43;;;;;;;5.20;3.25;;;24.20;72.70;;;;;;5074566;28;20032;-75
2022/07/25 07:45:26;;;;;;;5.68;3.33;;;24.20;72.50;;;;;;5076135;28;20016;-75
2022/07/25 07:47:53;;;;;;;6.13;2.85;;;24.20;71.70;;;;;;5046682;28;20029;-76
2022/07/25 07:50:24;;;;;;;7.05;3.08;;;24.30;71.60;;;;;;5076155;28;20043;-76
2022/07/25 07:52:50;;;;;;;7.22;3.15;;;24.40;71.30;;;;;;5076155;28;20048;-76
2022/07/25 07:58:01;;;;;;;6.13;2.40;;;24.50;70.70;;;;;;5075678;28;20119;-76
2022/07/25 08:00:29;;;;;;;5.60;3.25;;;24.60;70.80;;;;;;5076152;28;20048;-76
2022/07/25 08:02:55;;;;;;;6.53;3.65;;;24.70;70.70;;;;;;5057767;28;20028;-76
2022/07/25 08:05:30;;;;;;;6.10;2.78;;;24.70;70.10;;;;;;5057561;28;20115;-76
2022/07/25 08:07:56;;;;;;;6.15;2.33;;;24.80;70.20;;;;;;5075808;28;20021;-76
2022/07/25 08:10:30;;;;;;;5.85;1.83;;;24.80;70.10;;;;;;5075531;28;20086;-76
2022/07/25 08:12:57;;;;;;;3.88;1.65;;;24.90;67.80;;;;;;5075602;28;20040;-77
2022/07/25 08:15:23;;;;;;;4.43;1.52;;;24.90;67.80;;;;;;5075534;28;20016;-76
2022/07/25 08:17:50;;;;;;;6.78;2.08;;;24.90;68.40;;;;;;5075259;28;20469;-77
2022/07/25 08:20:17;;;;;;;5.55;2.17;;;24.90;67.90;;;;;;5075575;28;20074;-75
2022/07/25 08:22:45;;;;;;;2.78;1.70;;;24.80;68.10;;;;;;5075485;28;20021;-75
2022/07/25 08:25:19;;;;;;;3.97;1.50;;;24.80;68.10;;;;;;5075425;28;20024;-76
2022/07/25 08:27:46;;;;;;;2.90;1.40;;;24.80;67.90;;;;;;5057244;28;20024;-76
2022/07/25 08:30:13;;;;;;;4.13;1.30;;;24.90;67.80;;;;;;5074896;28;20485;-76
2022/07/25 08:32:47;;;;;;;3.28;1.20;;;25.00;67.60;;;;;;5074876;28;20055;-76
2022/07/25 08:35:12;;;;;;;3.47;1.38;;;25.10;67.70;;;;;;5074866;28;20024;-76
2022/07/25 08:37:38;;;;;;;3.42;1.50;;;25.20;67.30;;;;;;5057054;28;20364;-76
2022/07/25 08:40:04;;;;;;;2.08;1.17;;;25.30;67.10;;;;;;5074989;28;20028;-76
2022/07/25 08:42:32;;;;;;;2.78;0.90;;;25.30;66.70;;;;;;5074854;28;20025;-76
2022/07/25 08:45:02;;;;;;;3.90;1.15;;;25.30;66.00;;;;;;5056935;28;20032;-76
2022/07/25 08:47:28;;;;;;;2.88;0.80;;;25.20;66.20;;;;;;5074333;28;20035;-76
2022/07/25 08:49:54;;;;;;;3.30;0.90;;;25.20;66.60;;;;;;5074791;28;20035;-76
2022/07/25 08:52:21;;;;;;;4.35;1.02;;;25.20;66.60;;;;;;5074539;28;20062;-74
2022/07/25 08:54:48;;;;;;;2.38;0.70;;;25.20;66.70;;;;;;5074074;28;20110;-75
2022/07/25 08:57:14;;;;;;;4.03;1.00;;;25.20;66.90;;;;;;5071820;28;20081;-75
2022/07/25 08:59:41;;;;;;;2.60;0.73;;;25.40;67.10;;;;;;5074089;28;20485;-75
2022/07/25 09:02:09;;;;;;;1.73;0.50;;;25.40;66.90;;;;;;5074101;28;20100;-75
2022/07/25 09:04:36;;;;;;;2.05;0.60;;;25.40;66.90;;;;;;5071962;28;20036;-75
2022/07/25 09:07:03;;;;;;;3.95;0.60;;;25.50;67.30;;;;;;5074532;28;20104;-74
2022/07/25 09:09:35;;;;;;;2.67;0.60;;;25.60;67.50;;;;;;5056696;28;20036;-77
2022/07/25 09:12:02;;;;;;;2.95;0.70;;;25.50;67.50;;;;;;5056606;28;20036;-76
2022/07/25 09:14:31;;;;;;;2.90;0.70;;;25.60;67.90;;;;;;5074288;28;20033;-76
2022/07/25 09:16:56;;;;;;;2.45;0.63;;;25.60;68.10;;;;;;5057344;28;20028;-75
2022/07/25 09:19:24;;;;;;;4.20;0.63;;;25.60;68.10;;;;;;5074279;28;20086;-76
2022/07/25 09:22:07;;;;;;;4.18;0.60;;;25.70;68.20;;;;;;5074764;28;20029;-75
2022/07/25 09:24:33;;;;;;;2.03;0.50;;;25.70;68.00;;;;;;5073895;28;20032;-75
2022/07/25 09:27:08;;;;;;;1.73;0.52;;;25.80;68.20;;;;;;5056574;28;20494;-76
2022/07/25 09:29:34;;;;;;;2.97;0.50;;;25.80;68.40;;;;;;5055910;28;20031;-77
2022/07/25 09:32:01;;;;;;;3.13;0.68;;;25.80;68.40;;;;;;5055560;28;20368;-75
2022/07/25 09:34:36;;;;;;;4.30;0.80;;;25.80;68.70;;;;;;5073470;28;20365;-76
2022/07/25 09:37:05;;;;;;;3.10;0.70;;;25.70;68.60;;;;;;5066475;28;20017;-76
2022/07/25 09:39:45;;;;;;;2.92;0.60;;;25.70;68.80;;;;;;5055940;28;20380;-76
2022/07/25 09:42:26;;;;;;;2.08;0.52;;;25.60;69.10;;;;;;5073727;28;20052;-76
2022/07/25 09:45:00;;;;;;;4.05;0.52;;;25.70;69.40;;;;;;5073424;28;20054;-77
2022/07/25 09:47:26;;;;;;;3.38;0.60;;;25.80;69.20;;;;;;5061087;28;20039;-76
2022/07/25 09:49:52;;;;;;;4.15;0.45;;;25.90;69.20;;;;;;5073894;28;20056;-76
2022/07/25 09:52:17;;;;;;;2.45;0.40;;;26.00;68.90;;;;;;5073504;28;20083;-77
2022/07/25 09:54:43;;;;;;;2.78;0.40;;;26.10;68.90;;;;;;5073671;28;20036;-76
2022/07/25 09:57:09;;;;;;;3.28;0.73;;;26.10;68.20;;;;;;5073397;28;20060;-77
2022/07/25 09:59:35;;;;;;;3.17;0.63;;;26.10;67.50;;;;;;5073195;28;20032;-76
2022/07/25 10:02:31;;;;;;;2.20;0.60;;;26.10;67.60;;;;;;5073514;28;20499;-76
2022/07/25 10:05:15;;;;;;;3.50;0.60;;;26.10;67.80;;;;;;5072550;28;20032;-77
2022/07/25 10:07:43;;;;;;;;;;;26.10;68.10;;;;;;5073178;28;20099;-76
2022/07/25 10:10:30;;;;;;;2.53;0.63;;;26.20;68.20;;;;;;5076855;28;20437;-76
2022/07/25 10:13:09;;;;;;;3.25;0.60;;;26.50;68.10;;;;;;5052903;28;20048;-77
2022/07/25 10:15:51;;;;;;;1.27;0.50;;;26.60;67.80;;;;;;5053140;28;20025;-77
2022/07/25 10:18:26;;;;;;;3.97;0.80;;;26.70;67.30;;;;;;5052920;28;20032;-76
2022/07/25 10:20:55;;;;;;;2.78;0.52;;;26.80;66.90;;;;;;5035141;28;20029;-76
2022/07/25 10:23:23;;;;;;;4.25;0.70;;;26.80;67.60;;;;;;5052921;28;20496;-77
2022/07/25 10:26:10;;;;;;;5.32;0.90;;;26.90;67.10;;;;;;5052771;28;20025;-76
2022/07/25 10:28:47;;;;;;;4.78;0.70;;;27.00;66.70;;;;;;5052866;28;20100;-76
2022/07/25 10:31:30;;;;;;;8.48;1.38;;;27.00;66.30;;;;;;5034894;28;20362;-76
2022/07/25 10:33:58;;;;;;;4.78;0.70;;;27.20;65.20;;;;;;5052766;28;20155;-76
2022/07/25 10:36:32;;;;;;;1.67;0.60;;;27.30;64.90;;;;;;5052887;28;20051;-77
2022/07/25 10:39:00;;;;;;;3.80;0.80;;;27.40;64.50;;;;;;5052578;28;20021;-77
2022/07/25 10:41:27;;;;;;;4.07;0.85;;;27.40;63.70;;;;;;5051662;28;20039;-78
2022/07/25 10:43:58;;;;;;;3.05;0.80;;;27.50;63.20;;;;;;5052776;28;20035;-77
2022/07/25 10:46:26;;;;;;;4.32;0.80;;;27.60;62.60;;;;;;5052673;28;20021;-77
2022/07/25 10:49:01;;;;;;;3.03;0.68;;;27.70;62.00;;;;;;5052880;28;20108;-75
2022/07/25 10:51:30;;;;;;;4.07;0.70;;;27.70;61.90;;;;;;5069691;28;20115;-75
2022/07/25 10:53:55;;;;;;;2.88;0.85;;;27.80;62.20;;;;;;5072239;28;20020;-77
2022/07/25 10:56:23;;;;;;;2.30;0.60;;;27.80;60.60;;;;;;5071856;28;20017;-76
2022/07/25 10:58:54;;;;;;;2.67;0.70;;;28.00;59.80;;;;;;5052935;28;20056;-77
2022/07/25 11:01:32;;;;;;;4.20;0.80;;;28.20;59.80;;;;;;5072084;28;20029;-78
2022/07/25 11:04:03;;;;;;;4.43;0.85;;;28.50;59.00;;;;;;5072299;28;20111;-77
2022/07/25 11:06:29;;;;;;;2.72;0.70;;;28.50;58.30;;;;;;5052304;28;20063;-77
2022/07/25 11:08:56;;;;;;;4.30;0.75;;;28.60;58.60;;;;;;5072562;28;20056;-76
2022/07/25 11:11:33;;;;;;;3.78;0.90;;;28.50;57.80;;;;;;5072628;28;20024;-77
2022/07/25 11:14:00;;;;;;;6.28;0.80;;;28.60;58.30;;;;;;5072524;28;20020;-78
2022/07/25 11:16:26;;;;;;;3.40;0.52;;;28.70;58.30;;;;;;5072778;28;20066;-78
2022/07/25 11:18:53;;;;;;;3.45;0.60;;;28.80;58.50;;;;;;5056527;28;20111;-79
2022/07/25 11:21:19;;;;;;;4.72;0.90;;;28.80;58.50;;;;;;5075826;28;20031;-77
2022/07/25 11:23:50;;;;;;;6.10;1.10;;;28.90;58.80;;;;;;5075936;28;20040;-77
2022/07/25 11:26:17;;;;;;;3.58;0.73;;;28.80;58.60;;;;;;5076075;28;20132;-77
2022/07/25 11:28:46;;;;;;;3.25;0.60;;;28.70;58.40;;;;;;5074575;28;20013;-77
2022/07/25 11:31:13;;;;;;;2.35;0.52;;;28.60;58.50;;;;;;5075736;28;20036;-76
2022/07/25 11:33:43;;;;;;;2.08;0.63;;;28.60;58.60;;;;;;5041552;28;20044;-77
2022/07/25 11:36:09;;;;;;;3.70;1.00;;;28.60;58.40;;;;;;5076141;28;20016;-77
2022/07/25 11:38:37;;;;;;;4.60;0.90;;;28.60;58.30;;;;;;5075436;28;20440;-78
2022/07/25 11:41:04;;;;;;;3.95;0.82;;;28.40;58.20;;;;;;5057905;28;20021;-76
2022/07/25 11:43:29;;;;;;;2.88;0.90;;;28.40;58.30;;;;;;5040783;28;20032;-76
2022/07/25 11:46:06;;;;;;;6.63;1.13;;;28.20;58.30;;;;;;5057581;28;20116;-77
2022/07/25 11:48:34;;;;;;;4.75;1.15;;;28.10;58.20;;;;;;5075130;28;20028;-77
2022/07/25 11:51:14;;;;;;;4.30;0.85;;;27.90;58.40;;;;;;5075436;28;20017;-76
2022/07/25 11:53:49;;;;;;;6.90;0.98;;;27.80;58.70;;;;;;5075612;28;20031;-78
2022/07/25 11:56:20;;;;;;;3.00;0.85;;;27.60;59.00;;;;;;5057629;28;20020;-77
2022/07/25 11:58:56;;;;;;;4.55;0.80;;;27.60;59.30;;;;;;5075411;28;20053;-77
2022/07/25 12:01:23;;;;;;;5.28;1.10;;;27.40;59.50;;;;;;5074175;28;20021;-78
2022/07/25 12:03:49;;;;;;;5.03;1.00;;;27.30;59.60;;;;;;5075390;28;20423;-78
2022/07/25 12:06:14;;;;;;;5.15;1.05;;;27.10;59.80;;;;;;5075289;28;20024;-76
2022/07/25 12:08:41;;;;;;;4.38;0.80;;;27.10;59.70;;;;;;5074164;28;20364;-77
2022/07/25 12:11:17;;;;;;;4.82;0.90;;;27.00;59.40;;;;;;5075036;28;20094;-76
2022/07/25 12:13:43;;;;;;;3.80;1.00;;;27.00;59.20;;;;;;5057075;28;20429;-76
2022/07/25 12:16:09;;;;;;;3.35;0.80;;;27.00;58.40;;;;;;5040287;28;20096;-76
2022/07/25 12:18:36;;;;;;;3.65;0.68;;;27.00;58.20;;;;;;5057303;28;20380;-77
2022/07/25 12:21:02;;;;;;;4.60;0.80;;;27.10;58.10;;;;;;5075207;28;20020;-76
2022/07/25 12:23:28;;;;;;;4.32;0.95;;;27.20;58.00;;;;;;5073814;28;20032;-77
2022/07/25 12:25:53;;;;;;;3.55;0.65;;;27.30;58.20;;;;;;5056674;28;20476;-77
2022/07/25 12:28:19;;;;;;;4.25;1.02;;;27.30;57.80;;;;;;5056529;28;20033;-77
2022/07/25 12:30:46;;;;;;;5.57;1.02;;;27.20;57.60;;;;;;5074369;28;20071;-76
2022/07/25 12:33:12;;;;;;;6.30;1.08;;;27.10;57.90;;;;;;5039984;28;20437;-77
2022/07/25 12:35:40;;;;;;;6.20;1.20;;;27.10;58.20;;;;;;5065253;28;20032;-77
2022/07/25 12:38:05;;;;;;;7.65;1.40;;;27.10;58.40;;;;;;5054356;28;20024;-77
2022/07/25 12:40:32;;;;;;;5.55;1.00;;;27.10;58.70;;;;;;5061821;28;20052;-76
2022/07/25 12:42:58;;;;;;;6.90;1.02;;;27.20;59.00;;;;;;5067198;28;20024;-78
2022/07/25 12:45:25;;;;;;;7.07;1.25;;;27.30;58.90;;;;;;5063695;28;20017;-76
2022/07/25 12:47:51;;;;;;;6.53;1.42;;;27.30;59.10;;;;;;5064707;28;20444;-77